Plattsys  
          Plattsys Timing Results Board     Plattsys Timing Results Board
 
 
 
 

 
 
Find an Athlete by Name:


5K Race Results ()     Division Results ()    


Robert Tedford Memorial 5K Road Race
Top Male: 1. Jared Burchell 2. Andrew Carangelo 3. Allen Pangilinan 4. Eric Mead 5. Nicholas Willette
Top Female: 1. Linda Spooner 2. Destiny Fleeting 3. Kylie McCartney 4. Brittany Currie 5. Hayley Hesse
Robert Tedford Memorial 5K Road Race
Saturday Oct 26, 2019 - Tedford Park - Ellington CT
Platt Systems Chip Timing & Scoring - Partly Cloudy 51 degrees
Timing & Results by Plattsys Timing @ plattsys.com

Overall Male : Jared Burchell Overall Female: Linda Spooner

OVERALL GUN DIVISION
PLC Name A/S DIV CITY TIME PACE PLC/TOT BIB
1 Jared Burchell 13M M1019 Vernon Rockville CT 17:57 5:46 1/10 304
2 Andrew Carangelo 11M M1019 Vernon CT 18:43 6:01 2/10 321
3 Allen Pangilinan 32M M2059 South Windsor CT 19:02 6:07 1/61 65
4 Eric Mead 42M M2059 Ellington CT 19:05 6:08 2/61 1057
5 Nicholas Willette 32M M2059 Vernon Rockville CT 19:18 6:12 3/61 303
6 Nick Forst 16M M1019 Ellington CT 19:31 6:17 3/10 26
7 Brian Tiedt 25M M2059 Ellington CT 20:02 6:27 4/61 93
8 Linda Spooner 45F F2059 Sturbridge MA 20:08 6:28 1/52 82
9 Ben Pare 43M M2059 Ellington CT 20:49 6:42 5/61 66
10 Jay Seney 59M M2059 Vernon CT 21:11 6:49 6/61 341
11 Chad Anselmo 31M M2059 Ellington CT 21:22 6:52 7/61 1003
12 James Holden 51M M2059 Ellington CT 21:25 6:53 8/61 1036
13 Colby Derosier 12M M1019 Vernon CT 21:38 6:57 4/10 332
14 David Buono 57M M2059 Unionville CT 21:49 7:01 9/61 1013
15 Sam Forst 14M M1019 Ellington CT 21:54 7:02 5/10 27
16 John Gonski 47M M2059 Sandy Hook CT 22:00 7:04 10/61 30
17 Carson Morgan 13M M1019 Vernon Rockville CT 22:08 7:07 6/10 305
18 Destiny Fleeting 10F F1019 Vernon CT 22:13 7:09 1/17 337
19 Rob Boissonneault 56M M2059 East Berlin CT 22:15 7:09 11/61 1008
20 Douglas Woods 53M M2059 Windsor CT 22:17 7:10 12/61 100
21 Kylie McCartney 25F F2059 Boston MA 22:19 7:10 2/52 1053
22 Derek Litty 22M M2059 Ellington CT 22:33 7:15 13/61 1050
23 Mike Saimond 64M M6079 S Windsor CT 22:37 7:16 1/8 350
24 Brittany Currie 31F F2059 West Hartford CT 23:00 7:24 3/52 1017
25 Christopher Reese 58M M2059 Ellington CT 23:02 7:24 14/61 75
26 Kevin Monti 34M M2059 Portland CT 23:06 7:26 15/61 331
27 Brendon Willis 27M M2059 Vernon CT 23:14 7:28 16/61 99
28 Hayley Hesse 27F F2059 Vernon CT 23:14 7:28 4/52 35
29 Spence Kraus 23M M2059 Ellington CT 23:30 7:33 17/61 1044
30 Thomas Galotto 64M M6079 Stafford Springs CT 23:36 7:35 2/8 338
31 Jesse Odell 38M M2059 Manchester CT 23:37 7:36 18/61 64
32 Richard Martinez 42M M2059 Ellington CT 23:42 7:37 19/61 1052
33 Deb Esposito 56F F2059 Hamden CT 23:48 7:39 5/52 23
34 Gary Magnuson 52M M2059 Ellington CT 23:58 7:42 20/61 1051
35 Bill Dougherty 54M M2059 Ellington CT 23:59 7:43 21/61 1020
36 Isabella Jensen 13F F1019 Somers CT 24:31 7:53 2/17 312
37 Erik Nord 44M M2059 Ellington CT 24:42 7:56 22/61 62
38 Nicholas Salwa 25M M2059 Ellington CT 24:55 8:01 23/61 76
39 Hailey Morgan 10F F1019 Vernon Rockville CT 25:03 8:03 3/17 306
40 Matthew Lechkun 25M M2059 Ellington CT 25:05 8:04 24/61 1045
41 Tyler Vanagas 25M M2059 Ellington CT 25:11 8:06 25/61 95
42 Dan Boissonneault 63M M6079 Hamden CT 25:12 8:06 3/8 1007
43 Emily Pincince 15F F1019 Ellington CT 25:29 8:12 4/17 70
44 Amanda Johnson 39F F2059 Ellington CT 25:30 8:12 6/52 1040
45 Luis Valdez 31M M2059 Manchester CT 25:34 8:13 26/61 365
46 Geoffrey Currie 34M M2059 West Hartford CT 25:41 8:16 27/61 1018
47 Emily Breen 22F F2059 Ellington CT 25:46 8:17 7/52 317
48 Brian Clemons 29M M2059 Manchester CT 25:47 8:18 28/61 302
49 Bryan Forst 46M M2059 Ellington CT 25:48 8:18 29/61 24
50 Matt Given 36M M2059 Willington CT 25:52 8:19 30/61 342
51 Josh McCoy 25M M2059 Ellington CT 25:58 8:21 31/61 320
52 Elsie Diaz-Duchesne 48F F2059 Ellington CT 25:59 8:21 8/52 1019
53 Joel Pierson 46M M2059 Ellington CT 26:01 8:22 32/61 68
54 Madison Holden 16F F1019 Ellington CT 26:18 8:28 5/17 1037
55 James Heldmann 29M M2059 Bloomfield CT 26:41 8:35 33/61 319
56 Joseph Gaudino 26M M2059 Ellington CT 26:49 8:37 34/61 29
57 Kasey Phelps 29M M2059 Manchester CT 27:17 8:46 35/61 67
58 Shane Tedford 28M M2059 Manchester CT 27:24 8:49 36/61 308
59 Calvin Paulino 25M M2059 Bloomfield CT 27:25 8:49 37/61 322
60 Amanda Kimball 40F F2059 Ellington CT 27:44 8:55 9/52 1042
61 Julie Buonanno 34F F2059 Glastonbury CT 27:52 8:58 10/52 328
62 Kevin Toomey *W* 68M M6079 Manchester CT 27:58 9:00 4/8 323
63 Gregory Selavka *W* 27M M2059 Manchester CT 27:58 9:00 38/61 324
64 Mason Joyce *W* 29M M2059 Bristol CT 27:59 9:00 39/61 327
65 James Joyce *W* 59M M2059 Bristol CT 28:00 9:00 40/61 326
66 Chris Litty 55M M2059 Ellington CT 28:07 9:02 41/61 1049
67 Violet Spooner 9F F0009 Sturbridge MA 28:15 9:05 1/1 84
68 Steve Stephanou 31M M2059 Manchester CT 28:17 9:06 42/61 90
69 Raymond Prest 80M M6079 Ellington CT 28:25 9:08 5/8 74
70 Mark Turkington 75M M6079 Bolton CT 28:56 9:18 6/8 329
71 Chris Adams 54M M2059 East Hartford CT 29:06 9:21 43/61 1002
72 Bud Carr 53M M2059 Ellington CT 29:11 9:23 44/61 353
73 Lisa Anderson 50F F2059 Rocky Hill CT 29:13 9:24 11/52 358
74 Michael Schramm 27M M2059 New Haven CT 29:17 9:25 45/61 307
75 Mark Stephanou 66M M6079 Vernon CT 29:21 9:26 7/8 89
76 Stephanie Botticello 31F F2059 Ellington CT 29:23 9:27 12/52 1010
77 Teri Michaud 63F F6079 West Hartford CT 29:25 9:28 1/6 1058
78 Mike Skorulski 58M M2059 Ellington CT 29:25 9:28 46/61 78
79 Tracy French 50F F2059 Ellington CT 29:32 9:30 13/52 336
80 Madison Lemire 21F F2059 Ellington CT 29:34 9:30 14/52 1047
81 Hannah Syme 32F F2059 Willington CT 29:43 9:33 15/52 343
82 Matthew Ellis 44M M2059 Ellington CT 29:45 9:34 47/61 22
83 Steven Benuuzo 55M M2059 Portland CT 29:47 9:35 48/61 366
84 Casey Odell 35M M2059 Providence RI 29:52 9:36 49/61 63
85 Rachael Swain 39F F2059 Providence RI 29:53 9:37 16/52 91
86 Kate Forst 12F F1019 Ellington CT 30:00 9:39 6/17 25
87 Tim McMahon 41M M2059 Ellington CT 30:02 9:39 50/61 1056
88 Kaleigh Anselmo 32F F2059 Ellington CT 30:06 9:41 17/52 1004
89 CHris Schruth 38M M2059 Syracuse NY 30:16 9:44 51/61 348
90 Kathryn Schruth 36F F2059 Syracuse NY 30:16 9:44 18/52 349
91 Kelly Conover 31F F2059 South Windsor CT 30:33 9:49 19/52 1016
92 Matthew Pincince 11M M1019 Ellington CT 30:43 9:53 7/10 72
93 Sarah Gambacorta 38F F2059 Ellington CT 30:54 9:56 20/52 28
94 Patricia Saimond 67F F6079 S Windsor CT 31:07 10:00 2/6 351
95 Danielle Nitopi 31F F2059 S Windsor CT 31:10 10:01 21/52 335
96 DIANNE Trueb 63F F6079 Ellington CT 31:18 10:04 3/6 94
97 Randy Smith 40M M2059 Ellington CT 31:33 10:09 52/61 81
98 Emmett Smith 10M M1019 Ellington CT 31:33 10:09 8/10 80
99 Hailey Stratoudakis 12F F1019 Ellington CT 31:42 10:12 7/17 364
100 Carly Diwinsky 11F F1019 Ellington CT 31:44 10:12 8/17 355
101 Devan Dove 32F F2059 Ellington CT 32:00 10:18 22/52 21
102 Brittany Lemire 24F F2059 Ellington CT 32:27 10:26 23/52 1046
103 Kristen Helin 43F F2059 Ellington CT 32:32 10:28 24/52 33
104 Cadence Pincince 14F F1019 Ellington CT 32:53 10:35 9/17 69
105 Lisa Houlihan 50F F2059 Ellington CT 32:57 10:36 25/52 325
106 Brooke Diwinsky 14F F1019 Ellington CT 33:05 10:38 10/17 356
107 Lilah White 14F F1019 Ellington CT 33:12 10:41 11/17 357
108 Eli Smith 12M M1019 Ellington CT 33:12 10:41 9/10 79
109 Mark Sprague 43M M2059 Ellington CT 33:29 10:46 53/61 309
110 Jenna Pincince 39F F2059 Ellington CT 33:56 10:55 26/52 71
111 Ryan Phelps 23M M2059 Manchester CT 34:01 10:56 54/61 361
112 Madison Aho 15F F1019 N Kingstown RI 34:13 11:00 12/17 315
113 Taina Hernandez 31F F2059 Manchester CT 34:33 11:07 27/52 34
114 Victoria Bertrand 28F F2059 Coventry CT 34:33 11:07 28/52 346
115 Curtis Eckard 27M M2059 Coventry CT 34:33 11:07 55/61 347
116 Shannon Holden 46F F2059 Ellington CT 34:47 11:11 29/52 1038
117 Mike Piotrowski 57M M2059 Ellington CT 35:10 11:18 56/61 362
118 Mike Dreher 56M M2059 Prospect CT 35:11 11:19 57/61 363
119 Michael Aho 56M M2059 N Kingstown RI 35:14 11:20 58/61 314
120 Elizabeth Whiteley 36F F2059 Glastonbury CT 35:44 11:29 30/52 301
121 Joanne Britton 63F F6079 Manchester CT 35:44 11:29 4/6 1012
122 Kathleen Insler 67F F6079 Ellington CT 36:54 11:52 5/6 1039
123 Karen Masse 52F F2059 W Hartford CT 37:10 11:57 31/52 354
124 Cheryl Michaud 55F F2059 W Hartford CT 37:26 12:02 32/52 352
125 Jason Backman 12M M1019 Ellington CT 37:48 12:09 10/10 1005
126 Jared Stearns 53F F2059 Ellington CT 38:03 12:14 33/52 87
127 Heidi Bailey 54F F2059 Ellington CT 38:43 12:27 34/52 318
128 Melissa Machaew 47F F2059 Ellington CT 41:12 13:15 35/52 333
129 Rob Backman 48M M2059 Ellington CT 41:19 13:18 59/61 1006
130 Joy Bostick 49F F2059 Ellington CT 41:19 13:18 36/52 1009
131 Sydney Reid 72M M6079 Ellington CT 43:47 14:05 8/8 339
132 Liz Moriarty 55F F2059 South Windsor CT 43:53 14:07 37/52 61
133 Elizabeth Sprague 42F F2059 Ellington CT 45:09 14:31 38/52 85
134 Renee Welch 47F F2059 Ellington CT 45:10 14:32 39/52 311
135 Kathleen McCauley 43F F2059 Ellington CT 45:10 14:32 40/52 1054
136 Maura McGuire 59F F2059 S Windsor CT 45:53 14:46 41/52 367
137 Alexandra Karnolt 34F F2059 Ellington CT 45:53 14:46 42/52 1041
138 Lylah McCauley 11F F1019 Ellington CT 46:08 14:50 13/17 1055
139 Kate Welch 11F F1019 Ellington CT 46:08 14:50 14/17 310
140 Ella Sprague 11F F1019 Ellington CT 46:12 14:52 15/17 86
141 Ella Kimball 10F F1019 Ellington CT 46:15 14:53 16/17 1043
142 Isabella Helin 11F F1019 Ellington CT 46:17 14:53 17/17 32
143 Jerilyn Wasielewski 58F F2059 Ellington CT 47:59 15:26 43/52 97
144 Karen Gresh 58F F2059 Ellington CT 48:00 15:27 44/52 31
145 Pam Moriarty 53F F2059 Ellington CT 48:18 15:32 45/52 345
146 Brenda Sisco 61F F6079 Ellington CT 48:20 15:33 6/6 344
147 Kimberly Tedford 54F F2059 Manchester CT 48:34 15:37 46/52 92
148 Kelly Stephanou 31F F2059 Manchester CT 50:32 16:15 47/52 88
149 Nancy Connelly 58F F2059 Ellington CT 51:19 16:30 48/52 340
150 Laura Litty 55F F2059 Ellington CT 51:19 16:30 49/52 334
151 Betsy Aho 56F F2059 N Kingstown RI 54:46 17:37 50/52 316
152 Devin Butler 25M M2059 N Kingstown RI 54:48 17:38 60/61 313
153 Iain Magown 31M M2059 Newington CT 54:49 17:38 61/61 360
154 Leslie Furbush 31F F2059 Newington CT 54:50 17:38 51/52 359
155 Elizabeth Wilke 26F F2059 Farmington CT 54:50 17:38 52/52 98

5K Race Results ()     Division Results ()    

Top Male: 1. Jared Burchell 2. Andrew Carangelo 3. Allen Pangilinan 4. Eric Mead 5. Nicholas Willette

Top Female: 1. Linda Spooner 2. Destiny Fleeting 3. Kylie McCartney 4. Brittany Currie 5. Hayley Hesse

Online Registration = 
Online Entry


Results = 
Results


Timing by Plattsys
 = Timing by Plattsys




Contact us for Advertising Rates